Time;durP1;ratioP1;P1;durP2;ratioP2;P2;SDS_P1;SDS_P2;PMS_P1;PMS_P2;Temp;Humidity;BMP_temperature;BMP_pressure;BME280_temperature;BME280_humidity;BME280_pressure;Samples;Min_cycle;Max_cycle;Signal;HPM_P1;HPM_P2
2023/09/03 00:00:14;;;;;;;;;2.00;2.00;;;;;24.37;69.36;101789.97;4959783;28;45629;-69
2023/09/03 00:05:46;;;;;;;;;4.00;4.00;;;;;24.29;70.20;101776.91;4962121;28;45691;-68
2023/09/03 00:08:24;;;;;;;;;3.25;3.25;;;;;24.46;70.08;101816.59;4974368;28;47177;-68
2023/09/03 00:10:56;;;;;;;;;2.50;2.00;;;;;24.21;69.58;101773.88;4974092;28;45544;-70
2023/09/03 00:13:40;;;;;;;;;;;;;;;;;;;;;
2023/09/03 00:16:11;;;;;;;;;2.00;2.00;;;;;24.01;70.37;101770.75;4958596;28;72265;-70
2023/09/03 00:18:37;;;;;;;;;2.25;2.25;;;;;24.11;70.91;101794.66;4959222;28;46434;-69
2023/09/03 00:21:06;;;;;;;;;2.75;2.75;;;;;24.00;70.50;101782.63;4959454;28;45413;-70
2023/09/03 00:23:32;;;;;;;;;4.00;3.00;;;;;24.05;70.54;101790.50;4959381;28;45331;-70
2023/09/03 00:26:09;;;;;;;;;;;;;;;;;;;;;
2023/09/03 00:28:37;;;;;;;;;3.00;3.00;;;;;24.27;71.16;101829.84;4974544;28;75259;-70
2023/09/03 00:34:12;;;;;;;;;1.25;1.25;;;;;24.00;71.15;101792.69;4973047;28;45308;-69
2023/09/03 00:36:50;;;;;;;;;2.00;2.00;;;;;23.93;71.18;101777.75;4962587;28;45394;-70
2023/09/03 00:39:18;;;;;;;;;2.00;2.00;;;;;24.20;70.87;101823.97;4960827;28;47211;-69
2023/09/03 00:41:56;;;;;;;;;;;;;;;;;;;;;
2023/09/03 00:44:24;;;;;;;;;4.00;4.00;;;;;24.11;70.96;101824.66;4961612;28;68190;-69
2023/09/03 00:46:53;;;;;;;;;2.75;2.75;;;;;24.08;71.25;101833.91;4977522;28;45836;-69
2023/09/03 00:49:37;;;;;;;;;1.75;1.75;;;;;23.85;71.18;101800.97;4977230;28;47126;-69
2023/09/03 00:52:23;;;;;;;;;;;;;;;;;;;;;
2023/09/03 00:55:07;;;;;;;;;4.00;2.00;;;;;23.82;71.80;101806.69;4961535;28;67480;-69
2023/09/03 00:57:39;;;;;;;;;3.25;2.50;;;;;23.91;71.21;101815.19;4977272;28;45573;-69
2023/09/03 01:00:18;;;;;;;;;;;;;;;;;;;;;
2023/09/03 01:02:51;;;;;;;;;1.00;1.00;;;;;23.63;71.18;101787.13;4971371;28;74001;-69
2023/09/03 01:05:27;;;;;;;;;;;;;;;;;;;;;
2023/09/03 01:08:03;;;;;;;;;;;;;;;;;;;;;
2023/09/03 01:11:06;;;;;;;;;;;;;;;;;;;;;
2023/09/03 01:14:13;;;;;;;;;2.00;2.00;;;;;23.73;71.89;101807.28;4961109;28;72973;-69
2023/09/03 01:17:31;;;;;;;;;2.00;2.00;;;;;23.96;71.82;101843.00;4982320;28;45687;-69
2023/09/03 01:20:14;;;;;;;;;2.25;2.25;;;;;23.99;71.80;101849.09;4962004;28;45297;-69
2023/09/03 01:23:17;;;;;;;;;3.00;3.00;;;;;23.97;72.00;101837.44;4960614;28;47657;-69
2023/09/03 01:26:31;;;;;;;;;2.00;2.00;;;;;23.96;72.26;101823.91;4965267;28;45451;-69
2023/09/03 01:29:12;;;;;;;;;;;;;;;;;;;;;
2023/09/03 01:31:43;;;;;;;;;4.00;3.00;;;;;23.65;71.95;101771.53;4960705;28;71721;-70
2023/09/03 01:34:17;;;;;;;;;2.25;2.25;;;;;23.85;72.27;101813.75;4972523;28;47377;-69
2023/09/03 01:36:44;;;;;;;;;3.00;2.00;;;;;23.77;72.42;101803.38;4974567;28;45520;-69
2023/09/03 01:39:26;;;;;;;;;;;;;;;;;;;;;
2023/09/03 01:41:53;;;;;;;;;3.00;2.00;;;;;23.59;72.54;101761.94;4960728;28;72067;-69
2023/09/03 01:44:21;;;;;;;;;2.00;2.00;;;;;23.64;72.15;101769.81;4961641;28;46005;-69
2023/09/03 01:46:52;;;;;;;;;1.50;1.50;;;;;23.33;72.21;101724.78;4976456;28;45341;-70
2023/09/03 01:49:57;;;;;;;;;2.00;2.00;;;;;23.51;72.62;101769.78;4976670;28;45482;-69
2023/09/03 01:52:41;;;;;;;;;;;;;;;;;;;;;
2023/09/03 01:55:25;;;;;;;;;2.00;2.00;;;;;23.47;72.75;101768.25;4960350;28;74273;-70
2023/09/03 01:58:12;;;;;;;;;2.00;2.00;;;;;23.58;73.16;101787.44;4960199;28;45604;-69
2023/09/03 02:00:51;;;;;;;;;3.50;3.00;;;;;23.59;72.56;101783.75;4961552;28;45456;-69
2023/09/03 02:03:28;;;;;;;;;;;;;;;;;;;;;
2023/09/03 02:05:56;;;;;;;;;2.75;2.00;;;;;23.25;72.97;101734.34;4975603;28;74448;-69
2023/09/03 02:08:32;;;;;;;;;;;;;;;;;;;;;
2023/09/03 02:11:12;;;;;;;;;3.00;3.00;;;;;23.57;72.76;101787.56;4960144;28;68700;-69
2023/09/03 02:13:40;;;;;;;;;2.00;2.00;;;;;23.50;72.48;101784.38;4976111;28;45533;-69
2023/09/03 02:16:08;;;;;;;;;2.75;2.75;;;;;23.30;72.77;101761.28;4976337;28;46771;-70
2023/09/03 02:18:53;;;;;;;;;;;;;;;;;;;;;
2023/09/03 02:21:19;;;;;;;;;2.00;2.00;;;;;23.28;73.34;101752.34;4960333;28;67190;-69
2023/09/03 02:23:49;;;;;;;;;1.00;1.00;;;;;23.44;72.98;101787.56;4975716;28;45326;-69
2023/09/03 02:26:19;;;;;;;;;2.00;2.00;;;;;23.33;73.16;101777.41;4963723;28;46130;-69
2023/09/03 02:28:47;;;;;;;;;3.00;2.00;;;;;23.11;73.57;101759.84;4974002;28;46251;-69
2023/09/03 02:31:22;;;;;;;;;2.00;2.00;;;;;23.34;73.55;101784.63;4961231;28;45552;-69
2023/09/03 02:34:00;;;;;;;;;2.00;2.00;;;;;23.52;73.46;101823.28;4973070;28;45479;-69
2023/09/03 02:36:35;;;;;;;;;1.25;1.25;;;;;23.48;73.87;101810.88;4959286;28;47040;-69
2023/09/03 02:39:22;;;;;;;;;;;;;;;;;;;;;
2023/09/03 02:41:53;;;;;;;;;4.00;2.00;;;;;23.51;73.40;101827.03;4970832;28;69103;-69
2023/09/03 02:44:21;;;;;;;;;3.00;3.00;;;;;23.11;73.52;101757.13;4975710;28;45553;-69
2023/09/03 02:47:03;;;;;;;;;;;;;;;;;;;;;
2023/09/03 02:49:59;;;;;;;;;2.50;2.00;;;;;23.19;73.81;101778.38;4971528;28;71547;-69
2023/09/03 02:52:39;;;;;;;;;5.25;4.50;;;;;23.47;73.55;101825.47;4959095;28;45527;-68
2023/09/03 02:55:17;;;;;;;;;;;;;;;;;;;;;
2023/09/03 02:57:59;;;;;;;;;3.50;3.50;;;;;23.31;73.81;101802.03;4959416;28;75139;-69
2023/09/03 03:00:39;;;;;;;;;3.25;3.25;;;;;23.18;73.93;101784.78;4960566;28;45390;-69
2023/09/03 03:03:09;;;;;;;;;6.75;4.00;;;;;23.24;73.73;101794.41;4976693;28;45554;-69
2023/09/03 03:05:46;;;;;;;;;3.75;3.75;;;;;23.21;73.71;101794.63;4960477;28;45398;-69
2023/09/03 03:08:24;;;;;;;;;;;;;;;;;;;;;
2023/09/03 03:11:13;;;;;;;;;4.00;4.00;;;;;23.42;73.68;101841.28;4959068;28;73261;-69
2023/09/03 03:14:06;;;;;;;;;;;;;;;;;;;;;
2023/09/03 03:16:48;;;;;;;;;8.25;5.75;;;;;23.17;73.94;101807.59;4959163;28;73208;-70
2023/09/03 03:19:46;;;;;;;;;;;;;;;;;;;;;
2023/09/03 03:25:20;;;;;;;;;;;;;;;;;;;;;
2023/09/03 03:27:51;;;;;;;;;3.50;3.50;;;;;22.98;74.80;101788.00;4970717;28;73329;-69
2023/09/03 03:30:30;;;;;;;;;3.50;3.50;;;;;23.06;74.27;101801.97;4972313;28;47396;-70
2023/09/03 03:33:10;;;;;;;;;;;;;;;;;;;;;
2023/09/03 03:35:38;;;;;;;;;3.25;2.25;;;;;23.18;74.86;101841.13;4974997;28;68668;-69
2023/09/03 03:38:18;;;;;;;;;;;;;;;;;;;;;
2023/09/03 03:40:54;;;;;;;;;;;;;;;;;;;;;
2023/09/03 03:43:30;;;;;;;;;;;;;;;;;;;;;
2023/09/03 03:46:11;;;;;;;;;;;;;;;;;;;;;
2023/09/03 03:48:55;;;;;;;;;1.75;1.75;;;;;22.98;74.35;101826.97;4967317;28;72981;-69
2023/09/03 03:51:28;;;;;;;;;1.00;1.00;;;;;23.17;74.63;101864.78;4972584;28;45389;-69
2023/09/03 03:54:03;;;;;;;;;;;;;;;;;;;;;
2023/09/03 03:56:42;;;;;;;;;;;;;;;;;;;;;
2023/09/03 03:59:25;;;;;;;;;;;;;;;;;;;;;
2023/09/03 04:02:02;;;;;;;;;;;;;;;;;;;;;
2023/09/03 04:04:33;;;;;;;;;3.50;3.00;;;;;23.05;75.07;101888.19;4973476;28;72819;-69
2023/09/03 04:07:01;;;;;;;;;3.00;3.00;;;;;22.74;74.49;101835.81;4963318;28;45466;-69
2023/09/03 04:09:39;;;;;;;;;3.00;3.00;;;;;23.01;74.73;101888.53;4977715;28;45361;-70
2023/09/03 04:12:12;;;;;;;;;3.50;3.50;;;;;23.05;74.99;101906.41;4962746;28;46459;-70
2023/09/03 04:14:48;;;;;;;;;3.00;3.00;;;;;22.99;74.83;101887.72;4963155;28;45510;-70
2023/09/03 04:17:13;;;;;;;;;4.75;3.75;;;;;22.74;74.71;101854.00;4963346;28;45454;-69
2023/09/03 04:19:51;;;;;;;;;;;;;;;;;;;;;
2023/09/03 04:22:26;;;;;;;;;;;;;;;;;;;;;
2023/09/03 04:24:57;;;;;;;;;2.50;2.00;;;;;22.79;75.05;101875.44;4964894;28;71735;-69
2023/09/03 04:27:35;;;;;;;;;2.00;2.00;;;;;22.62;74.92;101841.19;4969987;28;45307;-68
2023/09/03 04:30:03;;;;;;;;;2.25;2.00;;;;;22.74;75.01;101868.47;4978758;28;45410;-68
2023/09/03 04:33:00;;;;;;;;;2.00;2.00;;;;;22.85;75.35;101891.38;4965656;28;47689;-68
2023/09/03 04:35:37;;;;;;;;;2.75;2.75;;;;;22.75;74.88;101880.22;4970178;28;45652;-69
2023/09/03 04:38:48;;;;;;;;;;;;;;;;;;;;;
2023/09/03 04:41:26;;;;;;;;;;;;;;;;;;;;;
2023/09/03 04:44:05;;;;;;;;;2.00;2.00;;;;;22.61;75.60;101877.56;4961505;28;74291;-69
2023/09/03 04:46:43;;;;;;;;;;;;;;;;;;;;;
2023/09/03 04:49:08;;;;;;;;;2.50;2.50;;;;;22.48;75.27;101867.44;4974077;28;68198;-69
2023/09/03 04:51:37;;;;;;;;;1.00;1.00;;;;;22.52;75.37;101863.56;4961042;28;45761;-69
2023/09/03 04:54:15;;;;;;;;;;;;;;;;;;;;;
2023/09/03 04:56:45;;;;;;;;;3.00;3.00;;;;;22.73;75.46;101898.50;4961457;28;72880;-69
2023/09/03 04:59:20;;;;;;;;;;;;;;;;;;;;;
2023/09/03 05:02:01;;;;;;;;;;;;;;;;;;;;;
2023/09/03 05:04:37;;;;;;;;;;;;;;;;;;;;;
2023/09/03 05:07:14;;;;;;;;;2.50;2.50;;;;;22.51;76.04;101875.41;4960899;28;73933;-69
2023/09/03 05:09:49;;;;;;;;;3.00;3.00;;;;;22.61;75.71;101885.72;4976930;28;45421;-69
2023/09/03 05:12:45;;;;;;;;;;;;;;;;;;;;;
2023/09/03 05:15:14;;;;;;;;;2.00;2.00;;;;;22.36;75.67;101860.09;4960962;28;74247;-70
2023/09/03 05:18:10;;;;;;;;;;;;;;;;;;;;;
2023/09/03 05:20:43;;;;;;;;;2.50;2.50;;;;;22.63;75.75;101902.81;4961046;28;68857;-69
2023/09/03 05:23:38;;;;;;;;;3.00;1.50;;;;;22.48;75.62;101889.22;4962019;28;45349;-69
2023/09/03 05:26:14;;;;;;;;;2.00;2.00;;;;;22.47;75.90;101882.06;4958018;28;48572;-69
2023/09/03 05:29:02;;;;;;;;;3.00;2.00;;;;;22.65;76.04;101918.06;4979196;28;45512;-69
2023/09/03 05:31:57;;;;;;;;;2.25;2.25;;;;;22.64;76.12;101923.63;4966321;28;45412;-69
2023/09/03 05:34:25;;;;;;;;;4.75;4.00;;;;;22.65;76.14;101928.06;4984285;28;45706;-69
2023/09/03 05:37:03;;;;;;;;;3.00;3.00;;;;;22.50;76.01;101908.16;4974660;28;45316;-69
2023/09/03 05:39:36;;;;;;;;;2.25;2.25;;;;;22.51;75.83;101908.06;4976440;28;46067;-68
2023/09/03 05:49:25;;;;;;;;;3.00;3.00;;;;;22.51;76.13;101918.09;4929481;28;46477;-71
2023/09/03 05:52:05;;;;;;;;;;;;;;;;;;;;;
2023/09/03 05:54:41;;;;;;;;;5.50;3.00;;;;;22.34;76.02;101903.72;4976186;28;67942;-69
2023/09/03 05:57:09;;;;;;;;;3.00;3.00;;;;;22.42;76.91;101919.56;4967291;28;45317;-69
2023/09/03 05:59:52;;;;;;;;;;;;;;;;;;;;;
2023/09/03 06:02:38;;;;;;;;;2.75;2.75;;;;;22.62;76.63;101966.38;4971892;28;72459;-69
2023/09/03 06:05:04;;;;;;;;;3.00;3.00;;;;;22.40;76.77;101940.53;4986139;28;45583;-69
2023/09/03 06:07:29;;;;;;;;;1.25;1.25;;;;;22.16;76.98;101897.56;4994774;28;45568;-69
2023/09/03 06:10:07;;;;;;;;;;;;;;;;;;;;;
2023/09/03 06:12:43;;;;;;;;;;;;;;;;;;;;;
2023/09/03 06:15:23;;;;;;;;;;;;;;;;;;;;;
2023/09/03 06:18:09;;;;;;;;;4.75;4.75;;;;;22.64;77.12;101986.22;4979766;28;72816;-71
2023/09/03 06:21:31;;;;;;;;;;;;;;;;;;;;;
2023/09/03 06:27:32;;;;;;;;;;;;;;;;;;;;;
2023/09/03 06:30:27;;;;;;;;;;;;;;;;;;;;;
2023/09/03 06:32:53;;;;;;;;;2.75;2.75;;;;;22.54;76.46;101992.22;4978326;28;73513;-66
2023/09/03 06:35:18;;;;;;;;;3.25;3.25;;;;;22.34;76.75;101943.66;4970222;28;45411;-66
2023/09/03 06:37:43;;;;;;;;;4.75;3.50;;;;;22.43;76.60;101967.53;4974684;28;45447;-66
2023/09/03 06:40:13;;;;;;;;;2.00;2.00;;;;;22.48;76.70;101981.72;4959401;28;45503;-66
2023/09/03 06:42:38;;;;;;;;;3.75;2.75;;;;;22.50;76.67;101992.50;4971290;28;46069;-66
2023/09/03 06:45:04;;;;;;;;;2.50;2.50;;;;;22.42;76.61;101975.78;4972246;28;45436;-66
2023/09/03 06:47:29;;;;;;;;;3.00;3.00;;;;;22.60;76.29;102017.31;4972058;28;45311;-66
2023/09/03 06:49:55;;;;;;;;;2.00;2.00;;;;;22.60;77.39;102015.44;4978005;28;45308;-67
2023/09/03 06:52:21;;;;;;;;;3.00;3.00;;;;;22.54;76.72;102014.00;4977672;28;46078;-67
2023/09/03 06:54:47;;;;;;;;;3.25;3.25;;;;;22.51;77.15;101997.84;4991263;28;45406;-67
2023/09/03 06:57:12;;;;;;;;;3.50;3.50;;;;;22.48;76.40;101994.47;4962746;28;45472;-66
2023/09/03 06:59:38;;;;;;;;;3.00;3.00;;;;;22.46;76.66;101994.56;4959274;28;45264;-66
2023/09/03 07:02:03;;;;;;;;;5.00;3.50;;;;;22.66;76.34;102025.09;4984658;28;47599;-67
2023/09/03 07:04:29;;;;;;;;;3.75;3.75;;;;;22.52;76.88;101994.19;4969942;28;45225;-66
2023/09/03 07:06:54;;;;;;;;;4.00;2.75;;;;;22.66;76.46;102015.06;4984515;28;45553;-67
2023/09/03 07:09:19;;;;;;;;;3.00;3.00;;;;;22.67;76.89;102021.38;4984939;28;45482;-67
2023/09/03 07:11:45;;;;;;;;;2.75;2.75;;;;;22.51;76.22;101999.72;4977122;28;45497;-66
2023/09/03 07:14:10;;;;;;;;;3.25;3.00;;;;;22.47;75.82;101998.13;4969546;28;45429;-67
2023/09/03 07:16:35;;;;;;;;;3.50;3.50;;;;;22.72;75.51;102035.56;4970072;28;45481;-68
2023/09/03 07:19:01;;;;;;;;;3.25;3.00;;;;;22.74;75.52;102036.38;4967088;28;45391;-68
2023/09/03 07:21:26;;;;;;;;;2.00;2.00;;;;;22.53;76.09;101993.19;4960794;28;45462;-66
2023/09/03 07:23:53;;;;;;;;;2.75;2.00;;;;;22.76;75.76;102035.28;4988593;28;45401;-67
2023/09/03 07:26:19;;;;;;;;;3.50;2.00;;;;;22.64;75.62;102024.31;4963314;28;45508;-67
2023/09/03 07:28:44;;;;;;;;;1.50;1.50;;;;;22.55;75.70;102004.88;4985801;28;45622;-66
2023/09/03 07:31:10;;;;;;;;;3.75;3.75;;;;;22.56;75.19;102014.78;4964961;28;45364;-67
2023/09/03 07:33:35;;;;;;;;;3.00;3.00;;;;;22.42;75.53;101979.41;4970265;28;45518;-67
2023/09/03 07:36:00;;;;;;;;;3.75;3.75;;;;;22.64;75.93;102006.13;4970125;28;45426;-67
2023/09/03 07:38:27;;;;;;;;;3.50;3.50;;;;;22.87;75.54;102039.16;4971490;28;45293;-68
2023/09/03 07:40:53;;;;;;;;;3.00;3.00;;;;;22.91;76.05;102041.59;4979867;28;47613;-67
2023/09/03 07:43:18;;;;;;;;;3.25;3.25;;;;;22.73;76.58;101997.38;4971406;28;45360;-68
2023/09/03 07:45:45;;;;;;;;;5.00;3.25;;;;;22.77;74.93;101989.91;4957447;28;45437;-67
2023/09/03 07:48:10;;;;;;;;;3.75;2.25;;;;;22.90;75.17;101988.13;4977681;28;45581;-67
2023/09/03 07:50:39;;;;;;;;;4.00;3.25;;;;;23.08;75.52;102024.19;4958437;28;45484;-67
2023/09/03 07:53:04;;;;;;;;;6.25;3.00;;;;;23.09;74.65;102006.03;4915122;28;1282755;-66
2023/09/03 07:55:30;;;;;;;;;3.75;3.75;;;;;22.90;75.50;101963.63;4959771;28;45370;-65
2023/09/03 07:57:56;;;;;;;;;2.00;2.00;;;;;23.21;74.92;102015.25;4967871;28;45474;-65
2023/09/03 08:00:21;;;;;;;;;4.00;3.25;;;;;23.08;74.71;101980.63;4965388;28;46093;-65
2023/09/03 08:02:47;;;;;;;;;3.00;3.00;;;;;23.18;74.62;101999.97;4975007;28;45395;-67
2023/09/03 08:05:12;;;;;;;;;3.50;3.50;;;;;23.37;74.67;102013.25;4978060;28;45545;-65
2023/09/03 08:07:38;;;;;;;;;4.25;4.25;;;;;23.25;74.71;101987.66;4971723;28;45233;-66
2023/09/03 08:10:03;;;;;;;;;3.00;3.00;;;;;23.33;74.80;101992.63;4974505;28;46368;-66
2023/09/03 08:12:29;;;;;;;;;2.50;2.00;;;;;23.22;73.82;101974.28;4970949;28;45485;-67
2023/09/03 08:14:54;;;;;;;;;3.00;3.00;;;;;23.47;74.68;102006.22;4974480;28;45477;-66
2023/09/03 08:17:21;;;;;;;;;2.75;2.75;;;;;23.41;74.23;101984.81;4959648;28;45565;-66
2023/09/03 08:19:53;;;;;;;;;4.25;2.75;;;;;23.46;73.61;101987.25;4974178;28;47300;-67
2023/09/03 08:22:21;;;;;;;;;5.00;3.75;;;;;23.49;73.47;101981.59;4959521;28;45453;-67
2023/09/03 08:24:46;;;;;;;;;2.25;2.25;;;;;23.48;74.05;101969.78;4962835;28;45527;-66
2023/09/03 08:27:12;;;;;;;;;1.75;1.75;;;;;23.67;73.57;101993.97;4965683;28;45442;-66
2023/09/03 08:29:37;;;;;;;;;2.75;2.75;;;;;23.64;73.27;101972.34;4977891;28;46268;-66
2023/09/03 08:32:03;;;;;;;;;2.25;2.25;;;;;23.67;73.56;101977.59;4959503;28;45436;-66
2023/09/03 08:34:28;;;;;;;;;3.50;3.50;;;;;23.74;74.23;101979.88;4968265;28;45486;-66
2023/09/03 08:36:53;;;;;;;;;3.00;3.00;;;;;23.81;73.30;101970.34;4971144;28;45509;-66
2023/09/03 08:39:19;;;;;;;;;3.00;3.00;;;;;23.97;74.07;101990.13;4968467;28;45371;-67
2023/09/03 08:41:48;;;;;;;;;4.75;4.00;;;;;23.93;74.08;101963.19;4959428;28;45372;-67
2023/09/03 08:44:23;;;;;;;;;3.50;3.50;;;;;24.22;73.38;102012.94;4984574;28;45454;-65
2023/09/03 08:46:56;;;;;;;;;2.75;2.75;;;;;24.08;73.28;101974.88;4972064;28;45384;-65
2023/09/03 08:49:22;;;;;;;;;3.75;3.75;;;;;24.24;72.54;102013.75;4974189;28;45437;-65
2023/09/03 08:51:47;;;;;;;;;3.00;3.00;;;;;24.33;73.21;102015.81;4962225;28;45434;-65
2023/09/03 08:54:13;;;;;;;;;2.50;2.00;;;;;24.32;72.36;102010.44;4960267;28;45441;-66
2023/09/03 08:56:38;;;;;;;;;2.00;2.00;;;;;24.23;72.87;101980.09;4990010;28;45352;-67
2023/09/03 08:59:04;;;;;;;;;4.75;4.25;;;;;24.39;72.54;102003.56;4980020;28;45234;-66
2023/09/03 09:01:30;;;;;;;;;4.00;4.00;;;;;24.49;72.95;102004.69;4971179;28;45470;-63
2023/09/03 09:04:02;;;;;;;;;3.75;3.75;;;;;24.54;72.51;101998.88;4970810;28;45531;-65
2023/09/03 09:06:30;;;;;;;;;5.00;4.00;;;;;24.40;71.62;101967.97;4966032;28;45350;-66
2023/09/03 09:08:58;;;;;;;;;4.25;3.75;;;;;24.63;71.33;102008.31;4976164;28;47129;-66
2023/09/03 09:11:30;;;;;;;;;4.00;3.00;;;;;24.50;71.19;101984.56;4972476;28;45634;-65
2023/09/03 09:13:57;;;;;;;;;4.00;4.00;;;;;24.72;71.83;102010.38;4975303;28;45482;-65
2023/09/03 09:16:23;;;;;;;;;2.50;2.50;;;;;24.73;71.36;102015.72;4976646;28;45462;-66
2023/09/03 09:18:48;;;;;;;;;4.25;4.25;;;;;24.87;71.07;102032.94;4991767;28;46322;-66
2023/09/03 09:21:14;;;;;;;;;2.00;2.00;;;;;24.88;71.52;102030.13;4980162;28;45460;-65
2023/09/03 09:23:39;;;;;;;;;4.50;4.50;;;;;24.92;71.06;102036.22;4968395;28;45576;-65
2023/09/03 09:26:16;;;;;;;;;3.00;3.00;;;;;24.88;71.47;102015.59;4971697;28;45458;-65
2023/09/03 09:28:57;;;;;;;;;4.75;4.25;;;;;24.83;71.36;102001.41;4981728;28;46793;-66
2023/09/03 09:31:32;;;;;;;;;3.50;3.50;;;;;25.08;71.23;102030.53;4973661;28;45569;-65
2023/09/03 09:34:07;;;;;;;;;6.00;5.00;;;;;24.95;70.95;102009.56;4970827;28;45458;-66
2023/09/03 09:36:33;;;;;;;;;3.75;3.00;;;;;25.11;71.35;102022.97;4975824;28;45632;-65
2023/09/03 09:39:06;;;;;;;;;3.00;3.00;;;;;25.19;71.66;102033.31;4959549;28;46263;-64
2023/09/03 09:41:37;;;;;;;;;2.25;2.00;;;;;25.28;70.57;102038.13;4963850;28;45505;-64
2023/09/03 09:44:07;;;;;;;;;4.00;3.00;;;;;25.29;70.39;102031.69;4959850;28;45492;-65
2023/09/03 09:46:33;;;;;;;;;3.75;3.75;;;;;25.32;70.09;102025.13;4974443;28;45424;-64
2023/09/03 09:49:00;;;;;;;;;4.50;4.25;;;;;25.40;69.82;102025.41;4971842;28;45431;-65
2023/09/03 09:51:27;;;;;;;;;4.00;4.00;;;;;25.24;71.24;101990.16;4963125;28;45562;-65
2023/09/03 09:54:00;;;;;;;;;5.25;3.50;;;;;25.47;69.78;102015.75;4966911;28;45772;-65
2023/09/03 09:56:28;;;;;;;;;4.00;4.00;;;;;25.64;69.88;102035.47;4965348;28;45345;-65
2023/09/03 09:58:53;;;;;;;;;3.50;3.50;;;;;25.82;69.68;102041.41;4964797;28;47275;-65
2023/09/03 10:01:19;;;;;;;;;3.25;2.25;;;;;25.80;68.80;102021.50;4963481;28;45529;-65
2023/09/03 10:03:48;;;;;;;;;3.50;3.50;;;;;25.92;68.90;102025.16;4968684;28;45474;-65
2023/09/03 10:06:15;;;;;;;;;7.00;5.00;;;;;25.97;68.75;102025.72;4978067;28;45503;-65
2023/09/03 10:08:42;;;;;;;;;2.50;1.50;;;;;25.84;69.19;102009.34;4965363;28;45406;-64
2023/09/03 10:11:07;;;;;;;;;2.50;2.50;;;;;26.09;69.08;102015.66;4960620;28;45404;-64
2023/09/03 10:13:33;;;;;;;;;4.00;4.00;;;;;26.09;68.83;102015.66;4992450;28;45392;-65
2023/09/03 10:16:04;;;;;;;;;4.50;4.50;;;;;26.22;68.69;102028.25;4961121;28;45523;-64
2023/09/03 10:18:32;;;;;;;;;4.50;3.25;;;;;26.07;68.18;101996.63;4975845;28;46063;-65
2023/09/03 10:21:00;;;;;;;;;3.00;2.25;;;;;26.27;67.33;102019.69;4980767;28;45387;-65
2023/09/03 10:23:28;;;;;;;;;4.00;4.00;;;;;26.29;67.65;102014.09;4960969;28;45582;-64
2023/09/03 10:25:55;;;;;;;;;4.00;4.00;;;;;26.34;68.05;102023.69;4980028;28;45474;-64
2023/09/03 10:28:25;;;;;;;;;3.50;3.00;;;;;26.30;67.50;101994.81;4975498;28;47057;-65
2023/09/03 10:30:52;;;;;;;;;4.75;4.00;;;;;26.42;67.42;102017.59;4971759;28;45884;-65
2023/09/03 10:33:18;;;;;;;;;6.00;4.00;;;;;26.55;67.41;102021.09;4978582;28;45613;-64
2023/09/03 10:36:15;;;;;;;;;4.25;4.25;;;;;26.59;67.29;102024.47;4961062;28;45441;-64
2023/09/03 10:38:41;;;;;;;;;5.75;5.00;;;;;26.57;66.92;102026.47;4969196;28;45384;-64
2023/09/03 10:41:25;;;;;;;;;4.50;4.50;;;;;26.64;67.07;102030.47;4960630;28;45294;-65
2023/09/03 10:43:52;;;;;;;;;5.25;4.25;;;;;26.70;66.45;102038.19;4988992;28;45342;-64
2023/09/03 10:46:18;;;;;;;;;5.75;5.25;;;;;26.75;66.33;102037.84;4974639;28;45328;-64
2023/09/03 10:48:55;;;;;;;;;4.00;4.00;;;;;26.76;66.40;102036.81;4970767;28;46483;-64
2023/09/03 10:51:32;;;;;;;;;3.75;3.75;;;;;26.76;65.58;102025.88;4962734;28;45392;-66
2023/09/03 10:54:14;;;;;;;;;5.00;3.25;;;;;26.70;65.42;102010.81;4961589;28;45457;-70
2023/09/03 10:57:05;;;;;;;;;5.00;5.00;;;;;26.79;65.97;102014.66;4988429;28;45651;-69
2023/09/03 10:59:58;;;;;;;;;5.75;4.75;;;;;26.93;66.04;102021.75;4977924;28;46341;-65
2023/09/03 11:02:27;;;;;;;;;5.00;4.00;;;;;26.80;66.56;102003.59;4967136;28;45916;-65
2023/09/03 11:05:36;;;;;;;;;;;;;;;;;;;;;
2023/09/03 11:08:29;;;;;;;;;3.50;3.50;;;;;26.92;65.09;101985.28;4968416;28;72897;-69
2023/09/03 11:11:27;;;;;;;;;;;;;;;;;;;;;
2023/09/03 11:14:30;;;;;;;;;5.25;4.25;;;;;27.05;63.89;101978.75;4972953;28;72868;-69
2023/09/03 11:17:13;;;;;;;;;4.25;4.25;;;;;27.32;64.29;102006.66;4991970;28;45459;-70
2023/09/03 11:19:48;;;;;;;;;5.00;4.00;;;;;27.18;63.29;101971.25;4979509;28;45606;-69
2023/09/03 11:22:21;;;;;;;;;5.00;4.00;;;;;27.47;61.85;101999.00;4967080;28;45675;-70
2023/09/03 11:24:55;;;;;;;;;5.00;5.00;;;;;27.46;61.44;101990.91;4965045;28;45399;-71
2023/09/03 11:27:20;;;;;;;;;4.00;4.00;;;;;27.39;60.87;101960.41;4977624;28;45385;-71
2023/09/03 11:29:48;;;;;;;;;3.25;3.25;;;;;27.38;60.53;101952.31;4979709;28;45432;-72
2023/09/03 11:32:16;;;;;;;;;4.25;2.75;;;;;27.70;60.24;101997.06;4973105;28;46069;-70
2023/09/03 11:34:58;;;;;;;;;2.50;2.50;;;;;27.77;60.00;102000.13;4973768;28;45448;-71
2023/09/03 11:37:58;;;;;;;;;3.25;3.25;;;;;27.65;60.55;101965.50;4977135;28;45485;-70
2023/09/03 11:40:26;;;;;;;;;3.00;3.00;;;;;27.75;59.22;101976.56;4970206;28;45735;-72
2023/09/03 11:46:47;;;;;;;;;;;;;;;;;;;;;
2023/09/03 11:49:21;;;;;;;;;5.75;4.75;;;;;27.90;59.67;101967.03;4953848;28;70032;-68
2023/09/03 11:52:29;;;;;;;;;5.25;4.00;;;;;27.93;58.98;101972.25;4969084;28;45466;-70
2023/09/03 11:55:14;;;;;;;;;;;;;;;;;;;;;
2023/09/03 11:57:59;;;;;;;;;;;;;;;;;;;;;
2023/09/03 12:00:24;;;;;;;;;5.25;3.25;;;;;27.91;59.29;101966.00;4961884;28;70056;-70
2023/09/03 12:03:00;;;;;;;;;5.50;5.00;;;;;28.09;58.45;101980.03;4969833;28;45427;-68
2023/09/03 12:05:32;;;;;;;;;4.75;4.00;;;;;28.19;58.54;101989.19;4973989;28;46263;-68
2023/09/03 12:10:49;;;;;;;;;5.00;4.75;;;;;28.15;58.29;101976.75;4973965;28;45415;-70
2023/09/03 12:13:28;;;;;;;;;5.00;5.00;;;;;28.10;57.79;101954.34;4978331;28;45788;-69
2023/09/03 12:16:22;;;;;;;;;4.00;4.00;;;;;28.21;57.80;101965.22;4975345;28;46462;-68
2023/09/03 12:18:59;;;;;;;;;8.00;7.00;;;;;28.36;57.68;101987.69;4964391;28;45938;-69
2023/09/03 12:22:27;;;;;;;;;;;;;;;;;;;;;
2023/09/03 12:28:32;;;;;;;;;4.25;4.25;;;;;28.32;56.47;101969.78;4923925;28;47299;-67
2023/09/03 12:31:02;;;;;;;;;3.50;3.50;;;;;28.39;55.40;101975.59;4987993;28;45352;-67
2023/09/03 12:33:34;;;;;;;;;5.50;4.25;;;;;28.58;55.63;102002.31;4975303;28;45439;-72
2023/09/03 12:36:11;;;;;;;;;2.25;2.25;;;;;28.58;55.81;101992.19;4977718;28;45557;-65
2023/09/03 12:38:57;;;;;;;;;3.25;3.25;;;;;28.37;55.28;101956.50;4963454;28;47011;-66
2023/09/03 12:41:41;;;;;;;;;3.25;3.25;;;;;28.57;55.38;101989.59;4991900;28;45660;-70
2023/09/03 12:44:15;;;;;;;;;5.50;3.75;;;;;28.43;55.58;101961.47;4966261;28;45544;-69
2023/09/03 12:46:51;;;;;;;;;4.50;4.50;;;;;28.49;55.80;101972.91;4979624;28;45710;-70
2023/09/03 12:50:28;;;;;;;;;;;;;;;;;;;;;
2023/09/03 12:52:43;;;;;;;;;4.00;4.00;;;;;28.67;53.71;101970.38;4967766;28;45865;-66
2023/09/03 12:55:09;;;;;;;;;3.50;3.50;;;;;28.67;53.88;101964.88;4970864;28;45534;-70
2023/09/03 12:57:47;;;;;;;;;;;;;;;;;;;;;
2023/09/03 13:00:23;;;;;;;;;;;;;;;;;;;;;
2023/09/03 13:02:49;;;;;;;;;4.00;4.00;;;;;28.60;53.03;101934.34;4967849;28;72940;-66
2023/09/03 13:05:14;;;;;;;;;3.75;3.00;;;;;28.95;53.07;101985.22;4979906;28;45749;-66
2023/09/03 13:08:01;;;;;;;;;;;;;;;;;;;;;
2023/09/03 13:10:29;;;;;;;;;2.75;1.25;;;;;29.00;52.80;101985.69;4977240;28;73645;-69
2023/09/03 13:13:02;;;;;;;;;2.25;2.25;;;;;28.86;52.95;101959.47;4974988;28;45319;-69
2023/09/03 13:16:03;;;;;;;;;5.75;3.25;;;;;29.08;53.31;101991.34;4992502;28;45410;-69
2023/09/03 13:18:54;;;;;;;;;3.75;3.75;;;;;28.98;53.32;101965.72;4979413;28;45454;-70
2023/09/03 13:22:09;;;;;;;;;;;;;;;;;;;;;
2023/09/03 13:24:45;;;;;;;;;3.25;2.25;;;;;29.05;53.08;101974.28;4973788;28;71840;-71
2023/09/03 13:27:27;;;;;;;;;3.00;3.00;;;;;29.17;52.83;101979.56;4972920;28;45424;-73
2023/09/03 13:30:02;;;;;;;;;2.00;2.00;;;;;29.18;53.02;101978.50;4972455;28;45475;-71
2023/09/03 13:32:35;;;;;;;;;4.00;4.00;;;;;29.00;52.56;101936.22;4970882;28;45601;-71
2023/09/03 13:35:12;;;;;;;;;6.00;4.25;;;;;29.10;52.07;101939.88;4977652;28;45410;-71
2023/09/03 13:41:38;;;;;;;;;;;;;;;;;;;;;
2023/09/03 13:44:43;;;;;;;;;;;;;;;;;;;;;
2023/09/03 13:47:22;;;;;;;;;4.25;3.25;;;;;29.21;51.35;101938.03;4960852;28;71358;-72
2023/09/03 13:49:55;;;;;;;;;3.00;3.00;;;;;29.38;50.95;101951.91;4978186;28;45464;-71
2023/09/03 13:52:24;;;;;;;;;2.00;1.50;;;;;29.28;51.55;101930.94;4969953;28;45436;-71
2023/09/03 13:54:51;;;;;;;;;3.25;2.50;;;;;29.31;50.53;101930.66;4960051;28;46750;-70
2023/09/03 13:57:17;;;;;;;;;2.75;2.50;;;;;29.45;50.82;101948.59;4986199;28;45665;-71